Steptoe Valley North, Nevada Weather observations

Data are for 10 minute period ending at time listed.
 Day   Time   Solar   Ave.   Ave.  Ave.  Vector  Max.   Baro.   Total    
  of    of     Rad.   Air    Rel.  Wind   Wind   Wind  Press.  Precip.   
Year   Day            Temp.  Hum.  Speed  Dir.   Gust                    
2017   (PST)  Kw/m2    F      %     mph   deg.    mph    mb.     in.     
-------------------------------------------------------------------------
 320   14:00   0.11   56.8    36   19.4   195    25.7   812.2    0.00 
 320   14:10   0.24   57.9    34   21.2   210    29.7   812.1    0.00 
 320   14:20   0.11   57.7    34   20.9   216    28.1   812.1    0.00 
 320   14:30   0.06   56.8    36   17.2   214    24.7   812.1    0.00 
 320   14:40   0.05   56.4    37   18.6   214    27.9   812.1    0.00 
 320   14:50   0.07   55.5    42   21.2   220    33.3   812.2    0.00 
 320   15:00   0.03   54.5    45   19.4   229    27.0   812.1    0.00 
 320   15:10   0.02   53.4    51   17.0   254    26.9   812.2    0.00 
 320   15:20   0.01   49.5    69   18.2   256    26.8   812.4    0.01 
 320   15:30   0.02   47.5    78   18.1   248    26.3   812.4    0.01 
 320   15:40   0.02   46.9    80   13.3   253    19.0   812.4    0.01 
 320   15:50   0.02   46.6    82    8.9   264    12.9   812.3    0.00 
 320   16:00   0.02   46.3    84    6.2   266     8.6   812.3    0.00 
 320   16:10   0.01   46.1    85    5.0   283     6.4   812.3    0.01 
 320   16:20   0.00   45.8    85    5.3   301     7.5   812.2    0.00 
 320   16:30   0.00   46.3    82    5.0   308    11.6   812.3    0.01 
 320   16:40   0.00   45.8    85    3.8    87     6.1   812.6    0.00 
 320   16:50   0.00   45.5    87    1.8   156     4.7   812.7    0.02 
 320   17:00   0.00   45.5    86    2.1   139     5.8   812.6    0.01 
 320   17:10   0.00   45.5    86    3.9   117     6.3   812.5    0.00 
 320   17:20   0.00   45.3    87    4.6   131     7.1   812.6    0.00 
 320   17:30   0.00   45.2    88    4.3   156     7.9   812.7    0.01 
 320   17:40   0.00   45.1    88    6.9   180     9.9   812.7    0.01 
 320   17:50   0.00   45.1    89    8.2   181    13.4   812.7    0.01 
 320   18:00   0.00   45.2    88    8.3   188    11.5   812.5    0.01 
 320   18:10   0.00   45.3    88    8.8   188    12.1   812.5    0.00 
 320   18:20   0.00   45.2    89    7.2   196    10.3   812.6    0.01 
 320   18:30   0.00   45.1    89    5.3   208     8.0   812.5    0.00 
 320   18:40   0.00   45.0    90    5.4   204     7.7   812.7    0.02 
 320   18:50   0.00   44.9    90    5.5   203     7.9   812.7    0.01 
 320   19:00   0.00   44.8    91    5.9   205     9.5   812.7    0.01 
 320   19:10   0.00   44.9    91    7.0   221    10.2   812.8    0.01 
 320   19:20   0.00   44.7    93    7.6   218    12.8   812.8    0.03 
 320   19:30   0.00   44.6    94    6.7   207     9.7   812.7    0.01 
 320   19:40   0.00   44.4    94    6.3   200     9.6   812.7    0.01 
 320   19:50   0.00   44.4    95    7.2   199    10.2   812.6    0.01 
 320   20:00   0.00   44.3    95    6.9   206    11.0   812.7    0.01 
 320   20:10   0.00   44.3    95    7.8   210    12.1   812.7    0.02 
 320   20:20   0.00   44.2    95    7.7   190    10.5   812.6    0.02 
 320   20:30   0.00   44.2    95    9.6   188    13.8   812.5    0.00 
 320   20:40   0.00   44.2    94    9.2   186    13.5   812.5    0.01 
 320   20:50   0.00   44.3    94    9.5   194    12.9   812.7    0.00 
 320   21:00   0.00   44.5    93    9.2   198    13.2   812.8    0.01 
 320   21:10   0.00   44.6    93    8.8   186    12.4   812.7    0.02 
 320   21:20   0.00   44.6    94   10.6   182    14.6   812.5    0.00 
 320   21:30   0.00   44.8    92   11.5   196    14.5   812.6    0.01 
 320   21:40   0.00   44.9    90   12.3   186    17.2   812.3    0.00 
 320   21:50   0.00   44.8    88   14.0   189    21.2   812.2    0.00 
 320   22:00   0.00   44.5    87   14.5   192    20.2   812.2    0.00 
 320   22:10   0.00   44.4    86   14.4   183    21.0   812.0    0.00 
 320   22:20   0.00   44.5    86   14.4   183    21.3   812.2    0.00 
 320   22:30   0.00   44.9    84   20.4   178    27.7   811.9    0.01 
 320   22:40   0.00   44.6    84   20.0   178    25.5   811.7    0.00 
 320   22:50   0.00   44.5    85   18.4   182    24.3   811.6    0.00 
 320   23:00   0.00   44.7    84   15.6   186    21.5   811.7    0.00 
 320   23:10   0.00   45.1    82   15.3   190    21.9   811.6    0.00 
 320   23:20   0.00   45.3    81   15.4   189    21.3   811.5    0.00 
 320   23:30   0.00   45.6    80   14.1   189    20.2   811.5    0.00 
 320   23:40   0.00   45.7    81   14.0   189    21.9   811.6    0.00 
 320   23:50   0.00   46.0    80   13.4   193    18.4   811.6    0.00 
 321    0:00   0.00   46.1    80   13.4   195    19.1   811.6    0.00 
 321    0:10   0.00   46.5    78   13.5   201    20.6   811.6    0.00 
 321    0:20   0.00   46.6    78   15.3   197    21.6   811.6    0.00 
 321    0:30   0.00   46.6    77   15.2   199    24.8   811.7    0.00 
 321    0:40   0.00   46.3    77   17.4   194    23.9   811.5    0.00 
 321    0:50   0.00   45.9    78   16.2   192    22.5   811.5    0.00 
 321    1:00   0.00   46.0    78   16.1   184    22.1   811.3    0.00 
 321    1:10   0.00   46.1    76   14.2   184    19.5   811.2    0.00 
 321    1:20   0.00   46.1    76   15.2   188    20.5   811.4    0.00 
 321    1:30   0.00   46.0    77   13.3   189    18.2   811.3    0.00 
 321    1:40   0.00   46.1    76   13.8   195    20.7   811.3    0.00 
 321    1:50   0.00   46.3    75   14.4   193    20.3   811.3    0.00 
 321    2:00   0.00   46.3    75   13.5   200    18.3   811.4    0.00 
 321    2:10   0.00   45.8    77   12.2   201    16.3   811.3    0.00 
 321    2:20   0.00   45.5    77   10.0   201    14.3   811.2    0.00 
 321    2:30   0.00   45.0    79    8.3   198    11.2   811.2    0.00 
 321    2:40   0.00   44.8    80    7.2   199    13.7   811.1    0.00 
 321    2:50   0.00   45.4    77   12.7   192    18.6   810.9    0.00 
 321    3:00   0.00   46.0    74   13.0   195    17.9   810.8    0.00 
 321    3:10   0.00   46.2    73   13.8   196    18.8   810.8    0.00 
 321    3:20   0.00   46.3    72   14.5   198    19.3   810.8    0.00 
 321    3:30   0.00   46.4    71   16.6   198    23.5   810.8    0.00 
 321    3:40   0.00   46.7    69   15.3   200    20.8   810.8    0.00 
 321    3:50   0.00   46.7    69   13.2   207    21.3   810.9    0.00 
 321    4:00   0.00   46.7    67   12.7   213    18.1   810.9    0.00 
 321    4:10   0.00   46.8    66   12.1   205    20.3   810.8    0.00 
 321    4:20   0.00   46.9    65   14.3   216    19.1   810.9    0.00 
 321    4:30   0.00   47.0    64   15.9   217    21.5   811.0    0.00 
 321    4:40   0.00   47.1    64   14.0   223    24.8   811.0    0.00 
 321    4:50   0.00   47.0    64   13.2   212    17.4   810.9    0.00 
 321    5:00   0.00   47.1    64   15.5   207    23.1   810.8    0.00 
 321    5:10   0.00   46.9    64   15.3   211    21.0   810.9    0.00 
 321    5:20   0.00   47.2    63   17.2   206    26.2   810.8    0.00 
 321    5:30   0.00   47.5    62   19.5   212    27.4   810.9    0.00 
 321    5:40   0.00   46.5    68   18.5   216    28.1   811.1    0.00 
 321    5:50   0.00   45.7    71   16.0   244    23.3   811.3    0.00 
 321    6:00   0.00   44.7    74   18.5   226    29.5   811.4    0.01 
 321    6:10   0.00   43.6    80   15.5   221    22.3   811.5    0.01 
 321    6:20   0.00   43.0    82   15.0   239    23.2   811.9    0.02 
 321    6:30   0.00   42.3    85    9.9   249    15.1   812.1    0.01 
 321    6:40   0.00   42.0    86    8.5   242    13.2   812.3    0.00 
 321    6:50   0.00   41.7    86   11.0   250    15.8   812.4    0.01 
 321    7:00   0.01   41.4    88    5.6   297     9.0   812.5    0.01 
 321    7:10   0.01   41.2    89    3.6   246     6.6   812.5    0.01 
 321    7:20   0.01   40.9    89    3.8   264     6.1   812.6    0.01 
 321    7:30   0.00   40.6    88    5.1   248     6.7   812.8    0.01 
 321    7:40   0.01   39.7    88    5.3   318     9.8   812.8    0.01 
 321    7:50   0.02   39.2    89    5.5   328     9.1   813.1    0.01 
 321    8:00   0.01   39.0    89    3.6   329     7.3   813.3    0.00 
 321    8:10   0.02   39.1    89    1.3    30     4.2   813.3    0.00 
 321    8:20   0.10   39.6    91    6.1   120    15.6   813.2    0.00 
 321    8:30   0.08   40.2    89   10.9   147    17.5   812.9    0.00 
 321    8:40   0.10   41.1    80   12.3   204    23.6   813.0    0.00 
 321    8:50   0.11   42.3    73   15.3   212    24.3   813.2    0.00 
 321    9:00   0.12   42.8    67   20.3   223    35.7   813.3    0.01 
 321    9:10   0.11   43.1    64   18.0   242    29.6   813.5    0.00 
 321    9:20   0.07   43.3    63   19.1   249    31.6   813.6    0.00 
 321    9:30   0.10   43.1    66   12.0   273    21.4   814.1    0.00 
 321    9:40   0.10   41.2    68   19.3   305    31.0   814.3    0.00 
 321    9:50   0.08   35.7    83   21.1   323    30.3   815.0    0.00 
 321   10:00   0.08   35.2    84   17.9   327    24.0   815.4    0.00 
 321   10:10   0.09   35.3    82   15.1   325    20.8   815.9    0.00 
 321   10:20   0.09   35.3    81   13.9   328    19.2   816.2    0.00 
 321   10:30   0.15   35.6    77   12.8   309    28.0   816.6    0.00 
 321   10:40   0.27   37.3    65   17.3   288    25.9   816.7    0.00 
 321   10:50   0.20   37.4    64   17.1   296    24.0   816.5    0.00 
 321   11:00   0.30   37.9    65   15.0   302    20.5   816.5    0.00 
 321   11:10   0.27   38.2    65   15.2   294    25.4   816.7    0.00 
 321   11:20   0.18   37.8    61   17.7   290    25.1   816.9    0.00 
 321   11:30   0.12   36.7    66   15.6   301    21.6   817.2    0.00 
 321   11:40   0.16   35.3    74   14.3   326    19.9   817.4    0.00 
 321   11:50   0.13   33.1    84   15.5   335    19.7   817.7    0.00 
 321   12:00   0.16   31.7    87   16.8   341    22.7   818.0    0.00 
 321   12:10   0.18   31.2    89   18.2   337    24.5   818.4    0.00 
 321   12:20   0.16   31.0    90   15.6   340    21.2   818.7    0.00 
 321   12:30   0.15   30.6    91   12.8   333    17.7   818.7    0.00 
 321   12:40   0.17   31.8    88   10.5   311    15.8   819.0    0.00 
 321   12:50   0.15   32.9    79   12.5   300    16.8   819.3    0.00 
 321   13:00   0.17   33.9    72   10.3   283    14.4   819.4    0.00 
 321   13:10   0.19   34.8    68   10.2   271    17.8   819.5    0.00 
 321   13:20   0.20   35.5    60   14.2   283    23.3   819.6    0.00 
 321   13:30   0.19   35.5    57   13.1   301    18.9   819.7    0.00 
 321   13:40   0.17   35.5    57   11.3   299    15.6   819.8    0.00 
 321   13:50   0.13   35.3    61    8.4   303    14.9   820.0    0.00 

Return to Steptoe Valley North graphs page.


Western Regional Climate Center,wrcc@dri.edu